Richmond, Massachusetts
Current Conditions -  °F | °C
As of 10:54 AM on Monday 24 Nov 2014 (Local Time) from KPSF Reporting Station
Light Rain Light Rain  
Wind Chill: 60°   Ceiling: 1600
Heat Index: 60°   Visibility: 7mi
Dew Point: 57°   Wind: 15mph
Humidity: 90%   Direction: 190°S
Pressure: 29.61"   Gusts: 20mph
Location:  42.37°N, 73.37°W
Report Text: KPSF 241554Z AUTO 19013G17KT 7SM -RA BKN016 OVC023 16/14 A2961 RMK AO2 SLP021 P0002 T01560139
Loading
Personal Weather Stations






























Interactive Weather Map New forecast layout! Learn more

10-Day Weather Forecast

Advertisements
Track Severe Weather on mobile